Time;durP1;ratioP1;P1;durP2;ratioP2;P2;SDS_P1;SDS_P2;PMS_P1;PMS_P2;Temp;Humidity;BMP_temperature;BMP_pressure;BME280_temperature;BME280_humidity;BME280_pressure;Samples;Min_cycle;Max_cycle;Signal;HPM_P1;HPM_P2
2022/10/14 00:01:50;;;;;;;92.20;39.50;;;;;;;6.19;100.00;99689.09;100678;1337;25483;-34
2022/10/14 00:04:16;;;;;;;81.60;32.80;;;;;;;6.17;100.00;99683.89;100690;1335;24383;-34
2022/10/14 00:06:41;;;;;;;42.30;19.90;;;;;;;6.17;100.00;99683.21;100667;1333;24404;-37
2022/10/14 00:09:08;;;;;;;66.30;31.90;;;;;;;6.18;100.00;99689.16;100691;1340;23090;-37
2022/10/14 00:11:34;;;;;;;94.60;35.90;;;;;;;6.17;100.00;99687.88;100693;1333;23090;-37
2022/10/14 00:14:02;;;;;;;97.10;38.50;;;;;;;6.14;100.00;99685.67;100735;1324;22732;-34
2022/10/14 00:16:30;;;;;;;65.80;30.70;;;;;;;6.11;100.00;99683.46;100712;1333;22878;-35
2022/10/14 00:18:56;;;;;;;102.00;41.80;;;;;;;6.10;100.00;99680.58;100773;1337;24455;-34
2022/10/14 00:21:22;;;;;;;55.00;25.20;;;;;;;6.11;100.00;99677.80;100676;1340;24489;-34
2022/10/14 00:23:48;;;;;;;36.70;18.90;;;;;;;6.18;100.00;99689.83;100682;1339;24476;-34
2022/10/14 00:26:18;;;;;;;55.70;25.20;;;;;;;6.31;100.00;99702.17;100695;1340;23284;-33
2022/10/14 00:28:44;;;;;;;50.00;22.50;;;;;;;6.37;100.00;99700.52;100699;1341;24315;-37
2022/10/14 00:31:10;;;;;;;88.90;37.60;;;;;;;6.33;100.00;99688.11;100681;1341;24856;-35
2022/10/14 00:33:35;;;;;;;54.70;30.40;;;;;;;6.30;100.00;99681.80;100720;1339;23240;-35
2022/10/14 00:36:03;;;;;;;53.50;26.30;;;;;;;6.30;100.00;99677.50;100609;1333;23505;-32
2022/10/14 00:38:28;;;;;;;58.20;29.90;;;;;;;6.33;100.00;99681.14;100718;1341;22796;-35
2022/10/14 00:40:54;;;;;;;88.50;38.80;;;;;;;6.36;100.00;99688.01;100700;1334;24497;-35
2022/10/14 00:43:21;;;;;;;68.80;33.20;;;;;;;6.33;100.00;99683.27;100721;1340;24586;-32
2022/10/14 00:45:47;;;;;;;88.80;34.20;;;;;;;6.27;100.00;99673.73;100684;1332;23073;-32
2022/10/14 00:48:13;;;;;;;94.10;43.60;;;;;;;6.24;100.00;99676.98;100659;1333;24383;-31
2022/10/14 00:50:42;;;;;;;97.90;42.90;;;;;;;6.21;100.00;99672.48;100591;1341;24464;-35
2022/10/14 00:53:07;;;;;;;92.10;41.00;;;;;;;6.19;100.00;99660.91;100706;1333;24341;-33
2022/10/14 00:55:33;;;;;;;65.50;33.40;;;;;;;6.24;100.00;99663.61;100574;1333;22762;-36
2022/10/14 00:57:58;;;;;;;67.90;31.90;;;;;;;6.30;100.00;99669.73;100619;1341;23103;-35
2022/10/14 01:00:24;;;;;;;72.30;34.90;;;;;;;6.35;100.00;99664.08;100624;1333;23264;-36
2022/10/14 01:02:49;;;;;;;65.70;32.20;;;;;;;6.41;100.00;99661.48;100648;1341;23115;-36
2022/10/14 01:05:16;;;;;;;78.60;35.50;;;;;;;6.46;100.00;99662.67;100687;1340;23128;-35
2022/10/14 01:08:01;;;;;;;;;;;;;;;6.53;100.00;99663.17;100658;1340;22901;-36
2022/10/14 01:10:29;;;;;;;100.60;38.20;;;;;;;6.60;100.00;99657.17;100613;1340;22904;-36
2022/10/14 01:12:58;;;;;;;84.50;35.40;;;;;;;6.65;100.00;99660.86;100672;1339;22794;-36
2022/10/14 01:15:29;;;;;;;92.90;38.70;;;;;;;6.67;100.00;99663.66;100800;1333;24315;-32
2022/10/14 01:18:01;;;;;;;93.40;36.20;;;;;;;6.68;100.00;99656.09;100761;1340;22892;-33
2022/10/14 01:20:34;;;;;;;74.10;36.00;;;;;;;6.69;100.00;99658.83;100749;1341;22513;-33
2022/10/14 01:23:01;;;;;;;;;;;;;;;6.69;100.00;99656.33;100597;1341;22502;-34
2022/10/14 01:25:32;;;;;;;60.60;31.70;;;;;;;6.69;100.00;99656.80;100745;1341;22751;-34
2022/10/14 01:28:03;;;;;;;71.70;34.20;;;;;;;6.71;100.00;99663.96;100713;1333;23062;-32
2022/10/14 01:30:36;;;;;;;73.00;34.00;;;;;;;6.70;100.00;99654.09;100719;1341;25579;-33
2022/10/14 01:33:03;;;;;;;66.00;31.60;;;;;;;6.70;100.00;99653.39;100740;1341;22961;-35
2022/10/14 01:35:36;;;;;;;94.10;38.50;;;;;;;6.71;100.00;99655.59;100515;1333;24474;-35
2022/10/14 01:38:07;;;;;;;84.00;39.70;;;;;;;6.71;100.00;99650.05;100709;1323;24497;-35
2022/10/14 01:40:38;;;;;;;79.90;39.80;;;;;;;6.71;100.00;99646.27;100724;1341;22505;-35
2022/10/14 01:43:03;;;;;;;95.70;42.20;;;;;;;6.73;100.00;99649.48;100684;1333;25418;-34
2022/10/14 01:45:30;;;;;;;85.90;43.20;;;;;;;6.74;100.00;99647.79;100752;1341;26683;-37
2022/10/14 01:47:55;;;;;;;71.60;38.30;;;;;;;6.75;100.00;99650.83;100756;1332;22715;-36
2022/10/14 01:50:23;;;;;;;84.40;38.00;;;;;;;6.76;100.00;99645.23;100707;1333;23214;-36
2022/10/14 01:52:53;;;;;;;98.60;44.50;;;;;;;6.78;100.00;99642.73;100678;1341;23116;-33
2022/10/14 01:55:21;;;;;;;118.30;43.20;;;;;;;6.80;100.00;99638.98;100669;1341;23882;-33
2022/10/14 01:57:46;;;;;;;94.10;43.70;;;;;;;6.80;100.00;99638.91;100721;1335;22762;-33
2022/10/14 02:00:12;;;;;;;82.60;35.70;;;;;;;6.80;100.00;99642.56;100659;1340;22753;-36
2022/10/14 02:02:38;;;;;;;87.60;39.60;;;;;;;6.78;100.00;99642.67;100687;1341;22925;-36
2022/10/14 02:05:07;;;;;;;89.30;39.00;;;;;;;6.77;100.00;99639.82;100694;1333;22749;-33
2022/10/14 02:07:39;;;;;;;92.80;39.30;;;;;;;6.74;100.00;99639.71;100637;1333;24591;-33
2022/10/14 02:10:10;;;;;;;84.20;34.60;;;;;;;6.70;100.00;99630.64;100695;1333;25286;-35
2022/10/14 02:12:37;;;;;;;78.60;35.50;;;;;;;6.64;100.00;99631.23;100689;1341;22746;-36
2022/10/14 02:15:23;;;;;;;95.20;38.40;;;;;;;6.59;100.00;99627.05;100699;1341;24485;-35
2022/10/14 02:17:55;;;;;;;88.10;39.20;;;;;;;6.54;100.00;99626.79;100745;1329;23104;-35
2022/10/14 02:20:27;;;;;;;97.40;37.70;;;;;;;6.51;100.00;99621.77;100547;1341;24558;-33
2022/10/14 02:22:57;;;;;;;77.10;35.40;;;;;;;6.47;100.00;99616.20;100723;1333;23128;-36
2022/10/14 02:25:27;;;;;;;87.50;39.30;;;;;;;6.44;100.00;99614.23;100612;1336;23229;-33
2022/10/14 02:27:53;;;;;;;77.50;32.50;;;;;;;6.43;100.00;99613.06;100728;1333;23129;-33
2022/10/14 02:30:19;;;;;;;92.10;39.90;;;;;;;6.44;100.00;99618.14;100794;1341;24476;-34
2022/10/14 02:32:45;;;;;;;64.00;30.10;;;;;;;6.45;100.00;99622.09;100682;1341;24361;-32
2022/10/14 02:35:10;;;;;;;74.30;32.20;;;;;;;6.41;100.00;99620.86;100663;1341;23032;-35
2022/10/14 02:37:36;;;;;;;85.80;38.90;;;;;;;6.38;100.00;99619.98;100739;1341;23101;-34
2022/10/14 02:40:06;;;;;;;82.50;40.10;;;;;;;6.34;100.00;99621.82;100670;1339;22716;-33
2022/10/14 02:42:32;;;;;;;85.60;40.20;;;;;;;6.32;100.00;99616.58;100535;1341;24463;-36
2022/10/14 02:44:58;;;;;;;95.30;40.90;;;;;;;6.33;100.00;99617.02;100723;1334;24383;-36
2022/10/14 02:47:24;;;;;;;82.40;38.00;;;;;;;6.32;100.00;99620.95;100694;1341;23246;-34
2022/10/14 02:49:50;;;;;;;80.80;37.80;;;;;;;6.33;100.00;99621.95;100546;1334;23052;-33
2022/10/14 02:52:16;;;;;;;81.40;37.50;;;;;;;6.33;100.00;99630.29;100656;1341;24383;-36
2022/10/14 02:54:42;;;;;;;76.20;34.60;;;;;;;6.31;100.00;99623.02;100734;1334;22690;-32
2022/10/14 02:57:08;;;;;;;89.20;40.30;;;;;;;6.33;100.00;99631.69;100814;1337;23067;-36
2022/10/14 02:59:34;;;;;;;95.60;44.80;;;;;;;6.34;100.00;99626.33;100678;1339;23227;-36
2022/10/14 03:01:59;;;;;;;84.20;38.40;;;;;;;6.35;100.00;99628.86;100510;1319;22496;-34
2022/10/14 03:04:25;;;;;;;57.60;27.80;;;;;;;6.34;100.00;99635.86;100671;1340;24456;-37
2022/10/14 03:06:50;;;;;;;90.80;38.40;;;;;;;6.33;100.00;99643.10;100682;1341;23012;-32
2022/10/14 03:09:16;;;;;;;60.20;28.90;;;;;;;6.33;100.00;99657.20;100717;1333;23239;-35
2022/10/14 03:11:42;;;;;;;44.20;23.70;;;;;;;6.34;100.00;99659.70;100664;1335;24379;-35
2022/10/14 03:14:07;;;;;;;56.40;26.00;;;;;;;6.36;100.00;99660.09;100708;1331;23995;-32
2022/10/14 03:16:33;;;;;;;80.20;38.50;;;;;;;6.33;100.00;99661.60;100682;1340;22877;-37
2022/10/14 03:18:58;;;;;;;88.90;37.70;;;;;;;6.29;100.00;99660.08;100680;1341;22529;-36
2022/10/14 03:21:24;;;;;;;40.80;21.10;;;;;;;6.27;100.00;99667.41;100628;1332;24383;-35
2022/10/14 03:23:49;;;;;;;34.40;18.90;;;;;;;6.27;100.00;99673.25;100680;1334;24800;-33
2022/10/14 03:26:15;;;;;;;57.80;26.10;;;;;;;6.25;100.00;99669.56;100674;1333;24473;-35
2022/10/14 03:28:41;;;;;;;78.70;36.00;;;;;;;6.26;100.00;99661.80;100685;1339;22889;-33
2022/10/14 03:31:06;;;;;;;44.60;22.70;;;;;;;6.26;100.00;99658.58;100590;1341;23113;-35
2022/10/14 03:33:32;;;;;;;86.70;35.60;;;;;;;6.26;100.00;99668.38;100746;1333;24312;-32
2022/10/14 03:35:57;;;;;;;68.70;31.60;;;;;;;6.28;100.00;99674.26;100701;1340;22928;-36
2022/10/14 03:38:23;;;;;;;100.50;38.10;;;;;;;6.26;100.00;99674.25;100711;1341;23017;-33
2022/10/14 03:40:48;;;;;;;77.80;35.50;;;;;;;6.27;100.00;99672.33;100642;1323;23062;-35
2022/10/14 03:43:14;;;;;;;97.50;40.60;;;;;;;6.30;100.00;99667.94;100707;1334;25269;-35
2022/10/14 03:45:39;;;;;;;79.50;38.30;;;;;;;6.30;100.00;99675.56;100489;1341;24358;-33
2022/10/14 03:48:05;;;;;;;96.90;35.50;;;;;;;6.30;100.00;99674.02;100652;1341;26474;-32
2022/10/14 03:50:31;;;;;;;98.00;38.70;;;;;;;6.30;100.00;99670.60;100653;1333;22911;-35
2022/10/14 03:52:56;;;;;;;99.70;43.60;;;;;;;6.30;100.00;99665.09;100530;1341;23247;-34
2022/10/14 03:55:22;;;;;;;85.20;34.90;;;;;;;6.31;100.00;99665.03;100524;1341;22749;-33
2022/10/14 03:57:47;;;;;;;113.70;45.10;;;;;;;6.32;100.00;99659.22;100654;1338;23233;-33
2022/10/14 04:00:14;;;;;;;71.00;34.30;;;;;;;6.33;100.00;99656.83;100619;1341;23231;-36
2022/10/14 04:02:39;;;;;;;73.90;33.80;;;;;;;6.34;100.00;99658.34;100705;1333;22700;-33
2022/10/14 04:05:05;;;;;;;79.40;36.80;;;;;;;6.33;100.00;99654.50;100488;1340;22516;-33
2022/10/14 04:07:31;;;;;;;60.50;28.30;;;;;;;6.31;100.00;99655.00;100670;1341;22716;-32
2022/10/14 04:09:56;;;;;;;87.20;40.20;;;;;;;6.30;100.00;99655.31;100615;1334;23149;-33
2022/10/14 04:12:22;;;;;;;89.00;42.70;;;;;;;6.30;100.00;99652.69;100632;1329;22764;-36
2022/10/14 04:14:47;;;;;;;101.90;47.30;;;;;;;6.26;100.00;99649.20;100695;1341;22750;-34
2022/10/14 04:23:41;;;;;;;79.90;33.40;;;;;;;6.17;100.00;99611.71;100097;1340;545399;-31
2022/10/14 04:26:07;;;;;;;99.30;46.60;;;;;;;6.14;100.00;99610.34;100393;1345;22760;-32
2022/10/14 04:28:32;;;;;;;90.10;39.90;;;;;;;6.12;100.00;99611.41;100335;1337;22891;-32
2022/10/14 04:30:58;;;;;;;84.20;38.10;;;;;;;6.09;100.00;99609.02;100349;1344;22876;-35
2022/10/14 04:33:24;;;;;;;83.10;40.10;;;;;;;6.08;100.00;99609.70;100273;1331;23093;-32
2022/10/14 04:35:50;;;;;;;78.60;37.90;;;;;;;6.06;100.00;99604.11;100315;1338;24362;-32
2022/10/14 04:38:16;;;;;;;84.70;38.80;;;;;;;6.04;100.00;99603.44;100335;1345;310842;-33
2022/10/14 04:40:44;;;;;;;48.90;25.60;;;;;;;6.04;100.00;99608.98;100578;1344;23107;-37
2022/10/14 04:43:09;;;;;;;67.70;32.90;;;;;;;6.03;100.00;99612.17;100365;1334;24443;-35
2022/10/14 04:45:35;;;;;;;69.40;32.20;;;;;;;6.00;100.00;99618.99;100426;1343;22856;-35
2022/10/14 04:48:01;;;;;;;106.90;42.00;;;;;;;5.98;100.00;99624.19;100387;1338;24315;-36
2022/10/14 04:50:27;;;;;;;90.50;39.60;;;;;;;5.96;100.00;99621.21;100382;1342;23005;-32
2022/10/14 04:52:52;;;;;;;60.00;28.50;;;;;;;5.94;100.00;99617.54;100517;1337;22881;-34
2022/10/14 04:55:18;;;;;;;33.30;19.60;;;;;;;5.91;100.00;99619.38;100480;1337;23122;-35
2022/10/14 04:57:44;;;;;;;68.60;30.20;;;;;;;5.92;100.00;99620.02;100450;1338;23125;-33
2022/10/14 05:00:11;;;;;;;103.20;43.10;;;;;;;5.89;100.00;99617.69;100522;1335;22875;-33
2022/10/14 05:02:36;;;;;;;89.80;40.40;;;;;;;5.85;100.00;99615.62;100463;1342;22960;-35
2022/10/14 05:05:04;;;;;;;73.90;34.90;;;;;;;5.84;100.00;99613.92;100492;1338;23103;-32
2022/10/14 05:07:30;;;;;;;81.20;35.70;;;;;;;5.80;100.00;99610.42;100549;1342;22880;-33
2022/10/14 05:09:55;;;;;;;75.60;32.50;;;;;;;5.75;100.00;99604.65;100480;1340;24379;-35
2022/10/14 05:12:21;;;;;;;68.10;32.40;;;;;;;5.70;100.00;99606.73;100510;1342;22714;-33
2022/10/14 05:14:46;;;;;;;41.60;19.90;;;;;;;5.67;100.00;99610.02;100454;1334;24380;-34
2022/10/14 05:17:12;;;;;;;22.40;14.40;;;;;;;5.61;100.00;99614.04;100499;1337;24460;-35
2022/10/14 05:19:37;;;;;;;62.70;27.30;;;;;;;5.56;100.00;99616.79;100433;1341;23225;-35
2022/10/14 05:22:03;;;;;;;85.70;38.50;;;;;;;5.55;100.00;99613.81;100491;1342;24353;-32
2022/10/14 05:24:28;;;;;;;70.70;30.20;;;;;;;5.53;100.00;99613.41;100517;1337;22716;-35
2022/10/14 05:26:54;;;;;;;63.40;28.70;;;;;;;5.50;100.00;99615.38;100479;1342;22890;-33
2022/10/14 05:29:19;;;;;;;62.80;31.00;;;;;;;5.45;100.00;99613.90;100468;1342;22522;-33
2022/10/14 05:31:45;;;;;;;126.10;40.70;;;;;;;5.43;100.00;99606.47;100497;1336;22749;-35
2022/10/14 05:34:10;;;;;;;77.00;29.30;;;;;;;5.46;100.00;99599.38;100472;1337;23614;-34
2022/10/14 05:36:36;;;;;;;77.70;35.40;;;;;;;5.50;100.00;99600.27;100535;1342;23225;-33
2022/10/14 05:39:02;;;;;;;69.80;33.20;;;;;;;5.49;100.00;99594.20;100368;1342;22760;-33
2022/10/14 05:41:27;;;;;;;47.40;25.40;;;;;;;5.48;100.00;99591.39;100622;1339;23109;-36
2022/10/14 05:43:53;;;;;;;75.40;35.90;;;;;;;5.51;100.00;99598.91;100547;1342;24282;-36
2022/10/14 05:46:18;;;;;;;44.80;21.90;;;;;;;5.54;100.00;99600.16;100543;1333;23252;-34
2022/10/14 05:48:44;;;;;;;52.80;26.40;;;;;;;5.62;100.00;99602.93;100504;1337;22729;-33
2022/10/14 05:51:09;;;;;;;62.30;31.60;;;;;;;5.73;100.00;99608.52;100512;1342;22747;-34
2022/10/14 05:53:37;;;;;;;55.60;27.90;;;;;;;5.78;100.00;99605.98;100511;1342;22754;-33
2022/10/14 05:56:05;;;;;;;55.30;28.50;;;;;;;5.80;100.00;99610.77;100540;1342;22894;-36
2022/10/14 05:58:31;;;;;;;56.50;25.70;;;;;;;5.80;100.00;99605.29;100533;1334;22522;-34
2022/10/14 06:00:59;;;;;;;49.70;29.60;;;;;;;5.77;100.00;99605.28;100555;1342;22812;-36
2022/10/14 06:03:25;;;;;;;81.50;26.30;;;;;;;5.82;100.00;99599.95;100576;1334;24856;-33
2022/10/14 06:05:50;;;;;;;66.10;32.70;;;;;;;5.85;100.00;99599.42;100569;1342;22893;-33
2022/10/14 06:08:16;;;;;;;60.00;32.30;;;;;;;5.89;100.00;99603.13;100540;1334;22748;-33
2022/10/14 06:10:42;;;;;;;53.20;27.10;;;;;;;5.96;100.00;99606.48;100538;1342;22883;-35
2022/10/14 06:13:07;;;;;;;86.20;40.10;;;;;;;5.99;100.00;99609.56;100410;1325;25884;-36
2022/10/14 06:15:34;;;;;;;94.20;44.70;;;;;;;6.06;100.00;99597.55;100535;1333;22717;-33
2022/10/14 06:18:00;;;;;;;118.50;50.70;;;;;;;6.10;100.00;99587.43;100562;1338;23004;-33
2022/10/14 06:20:25;;;;;;;101.00;46.70;;;;;;;6.10;100.00;99580.13;100436;1334;25784;-33
2022/10/14 06:22:51;;;;;;;91.50;43.60;;;;;;;6.12;100.00;99585.27;100486;1341;23224;-36
2022/10/14 06:25:16;;;;;;;87.10;40.10;;;;;;;6.20;100.00;99590.22;100477;1337;22751;-36
2022/10/14 06:27:42;;;;;;;97.20;37.70;;;;;;;6.31;100.00;99601.84;100542;1334;22760;-33
2022/10/14 06:30:08;;;;;;;75.10;39.30;;;;;;;6.45;100.00;99602.73;100556;1342;22761;-33
2022/10/14 06:32:34;;;;;;;96.90;46.50;;;;;;;6.51;100.00;99596.73;100501;1341;24379;-32
2022/10/14 06:34:59;;;;;;;61.00;30.50;;;;;;;6.72;100.00;99600.88;100445;1342;24221;-34
2022/10/14 06:37:25;;;;;;;52.70;25.40;;;;;;;6.93;100.00;99610.30;100455;1342;24360;-32
2022/10/14 06:39:50;;;;;;;57.10;30.60;;;;;;;7.15;100.00;99614.26;100530;1336;24977;-32
2022/10/14 06:42:16;;;;;;;39.80;18.50;;;;;;;7.37;100.00;99612.39;100469;1336;22910;-33
2022/10/14 06:44:42;;;;;;;119.10;55.70;;;;;;;7.60;100.00;99611.06;100532;1341;22906;-34
2022/10/14 06:47:07;;;;;;;131.90;57.40;;;;;;;7.83;100.00;99605.63;100505;1334;24485;-33
2022/10/14 06:49:33;;;;;;;93.40;46.90;;;;;;;8.07;100.00;99610.08;100533;1342;23108;-33
2022/10/14 06:51:58;;;;;;;103.90;49.70;;;;;;;8.30;100.00;99611.14;100348;1342;22787;-32
2022/10/14 06:54:24;;;;;;;112.00;46.10;;;;;;;8.51;100.00;99608.59;100479;1334;22760;-35
2022/10/14 06:56:49;;;;;;;93.10;44.10;;;;;;;8.68;100.00;99601.60;100544;1342;24373;-35
2022/10/14 06:59:15;;;;;;;109.30;54.90;;;;;;;8.87;100.00;99601.27;100517;1342;24367;-35
2022/10/14 07:01:41;;;;;;;80.20;41.40;;;;;;;9.08;100.00;99607.89;100343;1340;26091;-35
2022/10/14 07:04:06;;;;;;;109.10;47.50;;;;;;;9.30;100.00;99615.11;100474;1333;23087;-32
2022/10/14 07:06:32;;;;;;;108.50;50.50;;;;;;;9.48;100.00;99619.28;100444;1337;22700;-35
2022/10/14 07:08:58;;;;;;;71.90;38.20;;;;;;;9.67;100.00;99625.34;100520;1334;24391;-35
2022/10/14 07:11:23;;;;;;;65.60;32.10;;;;;;;9.97;100.00;99627.80;100539;1338;22920;-35
2022/10/14 07:13:49;;;;;;;48.30;28.90;;;;;;;9.95;100.00;99613.98;100590;1341;22871;-35
2022/10/14 07:16:15;;;;;;;47.80;25.30;;;;;;;10.04;100.00;99606.73;100448;1335;22531;-35
2022/10/14 07:18:41;;;;;;;46.40;17.40;;;;;;;10.26;100.00;99595.45;100449;1340;22893;-34
2022/10/14 07:21:06;;;;;;;25.90;13.40;;;;;;;10.22;100.00;99585.53;100536;1342;22713;-33
2022/10/14 07:23:32;;;;;;;73.50;35.50;;;;;;;10.49;100.00;99588.31;100576;1334;22472;-35
2022/10/14 07:25:59;;;;;;;65.60;34.50;;;;;;;10.82;100.00;99589.41;100531;1317;24331;-36
2022/10/14 07:28:25;;;;;;;71.40;34.50;;;;;;;10.88;100.00;99577.27;100691;1341;22874;-34
2022/10/14 07:30:56;;;;;;;65.50;35.40;;;;;;;11.11;100.00;99587.71;100591;1339;22893;-37
2022/10/14 07:33:22;;;;;;;84.40;40.00;;;;;;;11.41;100.00;99590.77;100676;1342;22834;-34
2022/10/14 07:35:47;;;;;;;66.00;36.60;;;;;;;11.59;100.00;99575.73;100656;1342;25987;-34
2022/10/14 07:38:13;;;;;;;58.60;32.00;;;;;;;11.59;100.00;99573.75;100605;1340;23064;-34
2022/10/14 07:40:39;;;;;;;59.80;31.90;;;;;;;11.77;100.00;99570.53;100464;1334;22504;-37
2022/10/14 07:43:04;;;;;;;74.30;38.90;;;;;;;11.81;100.00;99546.41;100630;1341;22751;-36
2022/10/14 07:45:34;;;;;;;55.30;34.40;;;;;;;11.70;100.00;99540.97;100618;1341;22636;-33
2022/10/14 07:48:01;;;;;;;58.10;33.70;;;;;;;11.72;100.00;99544.86;100694;1327;23110;-37
2022/10/14 07:50:26;;;;;;;56.60;29.50;;;;;;;11.82;100.00;99553.91;100619;1334;22719;-37
2022/10/14 07:52:52;;;;;;;43.30;26.40;;;;;;;11.85;100.00;99548.30;100633;1341;23355;-35
2022/10/14 07:55:18;;;;;;;52.70;33.10;;;;;;;11.97;100.00;99543.77;100591;1334;22723;-35
2022/10/14 07:57:43;;;;;;;69.60;34.80;;;;;;;11.87;100.00;99545.15;100643;1335;22787;-35
2022/10/14 08:00:10;;;;;;;61.50;31.00;;;;;;;11.86;100.00;99549.14;100651;1327;23062;-38
2022/10/14 08:02:35;;;;;;;64.80;35.80;;;;;;;11.96;100.00;99544.66;100654;1340;22865;-33
2022/10/14 08:05:02;;;;;;;62.60;31.80;;;;;;;11.99;100.00;99538.84;100613;1342;23127;-34
2022/10/14 08:07:28;;;;;;;65.30;29.80;;;;;;;11.98;100.00;99533.90;100674;1340;22767;-36
2022/10/14 08:09:53;;;;;;;55.30;28.80;;;;;;;12.05;100.00;99537.48;100610;1342;22984;-37
2022/10/14 08:12:19;;;;;;;63.90;32.20;;;;;;;12.25;100.00;99541.14;100502;1334;22600;-33
2022/10/14 08:14:45;;;;;;;55.10;26.20;;;;;;;12.44;100.00;99535.13;100686;1342;23109;-33
2022/10/14 08:17:10;;;;;;;48.70;28.10;;;;;;;12.41;100.00;99530.70;100654;1340;23214;-34
2022/10/14 08:19:36;;;;;;;48.20;29.30;;;;;;;12.33;100.00;99533.77;100526;1334;22777;-36
2022/10/14 08:22:01;;;;;;;57.70;31.00;;;;;;;12.43;100.00;99536.36;100668;1341;22494;-36
2022/10/14 08:24:27;;;;;;;54.80;29.30;;;;;;;12.35;100.00;99532.59;100661;1337;22734;-34
2022/10/14 08:26:55;;;;;;;44.00;28.20;;;;;;;12.37;100.00;99533.24;100620;1335;23222;-37
2022/10/14 08:29:21;;;;;;;57.20;30.30;;;;;;;12.34;100.00;99530.17;100642;1334;24356;-37
2022/10/14 08:31:47;;;;;;;53.70;31.30;;;;;;;12.27;100.00;99536.05;100621;1342;22755;-37
2022/10/14 08:34:13;;;;;;;42.70;24.20;;;;;;;12.29;100.00;99536.06;100593;1342;22584;-36
2022/10/14 08:36:39;;;;;;;55.40;30.40;;;;;;;12.35;100.00;99532.25;100654;1334;23170;-37
2022/10/14 08:39:05;;;;;;;58.50;28.30;;;;;;;12.49;100.00;99529.95;100549;1334;22502;-37
2022/10/14 08:41:38;;;;;;;33.10;18.30;;;;;;;12.61;100.00;99526.20;100641;1342;22896;-34
2022/10/14 08:44:08;;;;;;;49.40;25.70;;;;;;;12.77;100.00;99526.73;100679;1342;22519;-36
2022/10/14 08:46:37;;;;;;;41.60;22.90;;;;;;;12.88;100.00;99521.87;100653;1323;23112;-36
2022/10/14 08:49:10;;;;;;;42.40;20.90;;;;;;;13.16;100.00;99521.67;100684;1342;24311;-34
2022/10/14 08:51:36;;;;;;;36.90;22.20;;;;;;;13.55;100.00;99516.04;100450;1334;24379;-34
2022/10/14 08:54:05;;;;;;;49.20;25.30;;;;;;;13.89;100.00;99512.82;100547;1334;22749;-37
2022/10/14 08:56:32;;;;;;;34.40;20.30;;;;;;;14.27;100.00;99501.84;100717;1341;23107;-35
2022/10/14 08:59:00;;;;;;;31.00;17.40;;;;;;;14.61;100.00;99501.67;100660;1340;22874;-37
2022/10/14 09:01:28;;;;;;;40.60;23.80;;;;;;;14.87;99.73;99495.59;100637;1342;22818;-34
2022/10/14 09:03:57;;;;;;;35.10;20.00;;;;;;;15.09;100.00;99493.45;100656;1341;22744;-34
2022/10/14 09:06:25;;;;;;;28.50;16.10;;;;;;;15.23;99.07;99495.09;100492;1342;25590;-38
2022/10/14 09:08:53;;;;;;;19.20;13.40;;;;;;;15.63;96.66;99486.50;100668;1334;22525;-38
2022/10/14 09:11:20;;;;;;;40.80;17.90;;;;;;;15.57;94.35;99486.39;100626;1340;23242;-33
2022/10/14 09:13:48;;;;;;;34.30;16.80;;;;;;;15.74;92.68;99485.79;100622;1342;23425;-33
2022/10/14 09:16:17;;;;;;;27.50;17.30;;;;;;;15.92;90.99;99478.60;100692;1340;22748;-33
2022/10/14 09:18:47;;;;;;;23.60;15.60;;;;;;;16.16;91.18;99482.21;100653;1342;24460;-36
2022/10/14 09:21:20;;;;;;;27.20;16.60;;;;;;;16.41;88.25;99483.30;100672;1341;23260;-37
2022/10/14 09:23:45;;;;;;;25.50;13.40;;;;;;;16.68;87.19;99482.86;100669;1341;21856;-34
2022/10/14 09:26:14;;;;;;;20.90;14.60;;;;;;;17.03;86.63;99485.08;100601;1340;22722;-35
2022/10/14 09:28:42;;;;;;;9.70;8.70;;;;;;;17.46;86.98;99487.34;100659;1340;23214;-35
2022/10/14 09:31:10;;;;;;;25.80;16.90;;;;;;;17.57;86.13;99487.93;100676;1342;22748;-34
2022/10/14 09:33:38;;;;;;;33.40;18.50;;;;;;;17.69;82.26;99487.85;100722;1341;22825;-39
2022/10/14 09:36:10;;;;;;;27.10;18.60;;;;;;;17.83;82.42;99490.37;100543;1342;23670;-37
2022/10/14 09:38:35;;;;;;;15.70;12.00;;;;;;;18.17;81.75;99485.98;100455;1343;23255;-34
2022/10/14 09:41:01;;;;;;;19.90;13.20;;;;;;;18.41;78.59;99481.18;100492;1334;22740;-36
2022/10/14 09:43:28;;;;;;;27.40;16.40;;;;;;;18.80;80.25;99479.89;100648;1340;23103;-36
2022/10/14 09:45:57;;;;;;;19.70;13.70;;;;;;;18.64;76.91;99477.77;100635;1330;22760;-34
2022/10/14 09:48:31;;;;;;;21.10;17.10;;;;;;;18.90;75.37;99479.93;100612;1342;24379;-36
2022/10/14 09:50:57;;;;;;;27.20;19.30;;;;;;;18.86;77.14;99479.55;100628;1342;22511;-37
2022/10/14 09:53:29;;;;;;;32.40;16.90;;;;;;;19.01;74.18;99483.63;100639;1341;23177;-36
2022/10/14 09:55:57;;;;;;;17.90;13.30;;;;;;;18.99;74.48;99481.05;100703;1342;25404;-34
2022/10/14 09:58:28;;;;;;;21.30;15.10;;;;;;;19.32;75.75;99478.48;100565;1342;23244;-40
2022/10/14 10:00:56;;;;;;;17.90;12.80;;;;;;;19.81;71.75;99476.20;100696;1341;23087;-37
2022/10/14 10:03:24;;;;;;;28.60;15.50;;;;;;;19.58;69.28;99477.78;100630;1340;23104;-35
2022/10/14 10:06:00;;;;;;;16.20;12.50;;;;;;;19.79;69.29;99476.45;100733;1342;22624;-39
2022/10/14 10:08:26;;;;;;;18.30;14.70;;;;;;;20.12;66.04;99478.58;100656;1324;22527;-37
2022/10/14 10:10:57;;;;;;;26.10;13.20;;;;;;;20.02;63.88;99477.27;100587;1341;22521;-37
2022/10/14 10:13:31;;;;;;;21.20;14.50;;;;;;;19.85;64.72;99479.44;100510;1342;24031;-34
2022/10/14 10:15:58;;;;;;;18.20;11.50;;;;;;;20.11;63.62;99478.12;100512;1335;24421;-36
2022/10/14 10:18:25;;;;;;;17.00;11.90;;;;;;;20.25;61.27;99473.13;100629;1342;22532;-35
2022/10/14 10:20:58;;;;;;;13.40;11.10;;;;;;;20.52;57.66;99471.16;100638;1340;22697;-36
2022/10/14 10:23:24;;;;;;;;;;;;;;;20.08;58.04;99469.46;100671;1341;23027;-37
2022/10/14 10:25:50;;;;;;;11.50;7.70;;;;;;;19.55;59.56;99470.97;100672;1342;22749;-34
2022/10/14 10:28:19;;;;;;;23.60;12.50;;;;;;;19.44;60.08;99467.08;100651;1327;24400;-34
2022/10/14 10:30:56;;;;;;;14.40;10.70;;;;;;;19.29;60.25;99468.80;100663;1340;22500;-36
2022/10/14 10:33:27;;;;;;;16.20;11.30;;;;;;;19.18;60.64;99470.05;100637;1341;22519;-34
2022/10/14 10:35:57;;;;;;;15.30;10.50;;;;;;;18.96;60.52;99467.23;100589;1341;22866;-36
2022/10/14 10:38:30;;;;;;;18.70;8.40;;;;;;;18.60;61.88;99463.23;100646;1340;22744;-38
2022/10/14 10:40:59;;;;;;;;;;;;;;;18.89;63.14;99462.83;100493;1335;23255;-33
2022/10/14 10:43:30;;;;;;;19.70;11.90;;;;;;;19.42;62.39;99462.58;100638;1341;22750;-36
2022/10/14 10:46:03;;;;;;;21.20;12.70;;;;;;;19.83;59.79;99458.19;100669;1332;23017;-34
2022/10/14 10:48:32;;;;;;;15.70;11.30;;;;;;;19.86;58.00;99457.73;100629;1342;22747;-34
2022/10/14 10:51:02;;;;;;;17.40;9.80;;;;;;;19.94;57.74;99455.27;100650;1340;22821;-36
2022/10/14 10:53:35;;;;;;;13.20;10.70;;;;;;;19.95;56.64;99452.21;100599;1328;22522;-40
2022/10/14 10:56:07;;;;;;;16.30;8.00;;;;;;;20.47;54.28;99450.91;100684;1334;23061;-36
2022/10/14 10:58:40;;;;;;;11.80;10.00;;;;;;;20.00;56.46;99452.22;100683;1341;25554;-35
2022/10/14 11:01:15;;;;;;;15.20;11.00;;;;;;;20.12;56.64;99444.04;100669;1337;22567;-36
2022/10/14 11:03:47;;;;;;;13.90;10.60;;;;;;;20.58;56.93;99437.36;100661;1341;25325;-34
2022/10/14 11:12:01;;;;;;;9.80;5.80;;;;;;;20.85;54.42;99436.48;100682;1342;22871;-38
2022/10/14 11:14:18;;;;;;;13.80;10.40;;;;;;;20.71;55.25;99425.91;100641;1341;22747;-35
2022/10/14 11:16:44;;;;;;;29.50;9.50;;;;;;;21.03;53.35;99429.05;100712;1340;22532;-37
2022/10/14 11:19:15;;;;;;;15.00;9.30;;;;;;;21.14;52.67;99430.38;100602;1342;22894;-36
2022/10/14 11:21:45;;;;;;;13.50;8.00;;;;;;;21.13;52.92;99426.93;100667;1334;23026;-34